Time;durP1;ratioP1;P1;durP2;ratioP2;P2;SDS_P1;SDS_P2;PMS_P1;PMS_P2;Temp;Humidity;BMP_temperature;BMP_pressure;BME280_temperature;BME280_humidity;BME280_pressure;Samples;Min_cycle;Max_cycle;Signal;HPM_P1;HPM_P2
2022/03/28 00:02:22;;;;;;;32.50;11.07;;;;;;;3.38;69.88;96017.88;5111078;28;20080;-47
2022/03/28 00:04:49;;;;;;;27.58;11.07;;;;;;;3.39;69.94;96014.34;5109525;28;20043;-42
2022/03/28 00:07:16;;;;;;;26.75;11.45;;;;;;;3.37;70.41;96020.63;5105987;28;20512;-43
2022/03/28 00:09:43;;;;;;;17.58;9.27;;;;;;;3.34;71.09;96011.44;5110856;28;20047;-45
2022/03/28 00:12:10;;;;;;;21.80;11.68;;;;;;;3.39;71.10;96006.63;5108760;28;20081;-42
2022/03/28 00:14:37;;;;;;;25.48;12.30;;;;;;;3.39;71.07;96008.41;5110161;28;20059;-44
2022/03/28 00:17:04;;;;;;;27.85;10.48;;;;;;;3.32;72.41;96003.06;5111720;28;20044;-44
2022/03/28 00:19:31;;;;;;;27.48;10.05;;;;;;;3.29;71.88;96007.72;5111487;28;20063;-44
2022/03/28 00:21:58;;;;;;;17.05;9.05;;;;;;;3.27;72.03;96004.50;5111853;28;20416;-43
2022/03/28 00:24:24;;;;;;;22.55;9.30;;;;;;;3.21;72.53;96004.16;5109135;28;20044;-43
2022/03/28 00:26:51;;;;;;;21.70;9.80;;;;;;;3.20;72.75;95999.94;5110818;28;20054;-45
2022/03/28 00:29:18;;;;;;;32.80;10.30;;;;;;;3.19;72.10;95992.41;5110670;28;20108;-44
2022/03/28 00:31:45;;;;;;;23.42;9.73;;;;;;;3.15;71.81;95994.50;5088298;28;20051;-43
2022/03/28 00:34:12;;;;;;;19.08;9.73;;;;;;;3.10;72.50;95989.00;5109352;28;20492;-43
2022/03/28 00:36:38;;;;;;;15.02;8.15;;;;;;;3.10;72.63;95989.00;5109890;28;20430;-46
2022/03/28 00:39:05;;;;;;;19.40;9.40;;;;;;;3.01;72.75;95984.78;5108506;28;20105;-48
2022/03/28 00:41:32;;;;;;;19.38;8.80;;;;;;;2.97;73.71;95974.00;5108314;28;20047;-48
2022/03/28 00:43:59;;;;;;;19.95;9.48;;;;;;;2.99;74.15;95966.09;5110246;28;20461;-42
2022/03/28 00:46:27;;;;;;;18.15;8.45;;;;;;;2.84;74.61;95958.97;5109561;28;20512;-44
2022/03/28 00:48:54;;;;;;;22.83;9.63;;;;;;;2.70;75.70;95959.53;5108108;28;20078;-45
2022/03/28 00:51:22;;;;;;;23.85;10.38;;;;;;;2.81;76.98;95968.75;5107811;28;20134;-45
2022/03/28 00:53:50;;;;;;;17.65;8.15;;;;;;;2.82;78.60;95970.38;5108569;28;20043;-43
2022/03/28 00:56:18;;;;;;;20.63;9.38;;;;;;;2.91;78.27;95973.78;5111173;27;20044;-43
2022/03/28 00:58:46;;;;;;;20.85;9.25;;;;;;;2.92;75.28;95971.06;5112576;27;20100;-43
2022/03/28 01:01:13;;;;;;;29.65;11.43;;;;;;;2.86;75.26;95966.53;5111232;27;20047;-46
2022/03/28 01:03:41;;;;;;;22.27;9.88;;;;;;;2.84;75.29;95974.41;5113627;27;20051;-43
2022/03/28 01:06:08;;;;;;;25.80;10.60;;;;;;;2.84;74.99;95979.53;5113258;27;20397;-45
2022/03/28 01:08:35;;;;;;;22.20;11.18;;;;;;;2.84;75.27;95992.41;5111607;27;20039;-45
2022/03/28 01:11:04;;;;;;;23.75;10.07;;;;;;;2.80;74.72;95988.53;5112502;27;20043;-44
2022/03/28 01:13:35;;;;;;;24.27;9.90;;;;;;;2.69;75.09;95975.94;5110397;27;20401;-47
2022/03/28 01:16:03;;;;;;;19.50;9.55;;;;;;;2.63;74.67;95976.56;5113164;27;20050;-48
2022/03/28 01:18:31;;;;;;;22.63;11.90;;;;;;;2.45;75.57;95969.72;5114363;27;20485;-44
2022/03/28 01:20:59;;;;;;;23.95;9.40;;;;;;;2.43;75.09;95966.50;5116454;27;20046;-44
2022/03/28 01:23:27;;;;;;;23.15;8.98;;;;;;;2.40;74.34;95977.06;5113284;27;20047;-43
2022/03/28 01:25:54;;;;;;;19.55;9.75;;;;;;;2.34;74.46;95975.13;5114058;27;20058;-45
2022/03/28 01:28:26;;;;;;;17.50;9.18;;;;;;;2.26;74.71;95964.78;5110394;27;20523;-43
2022/03/28 01:30:54;;;;;;;16.73;8.38;;;;;;;2.07;74.83;95956.31;5109121;27;20551;-45
2022/03/28 01:33:22;;;;;;;16.42;8.48;;;;;;;2.00;75.75;95970.72;5111632;27;20051;-43
2022/03/28 01:35:49;;;;;;;15.50;8.40;;;;;;;1.78;75.51;95971.16;5110776;27;20136;-42
2022/03/28 01:38:19;;;;;;;21.77;8.77;;;;;;;1.67;76.46;95975.56;5114047;27;20047;-42
2022/03/28 01:40:48;;;;;;;21.55;9.80;;;;;;;1.66;76.53;95984.22;5110691;27;20459;-43
2022/03/28 01:43:17;;;;;;;20.67;9.25;;;;;;;1.46;76.55;95986.13;5111997;27;20043;-44
2022/03/28 01:45:44;;;;;;;20.20;9.38;;;;;;;1.27;77.23;95984.50;5109862;27;20043;-44
2022/03/28 01:48:11;;;;;;;19.83;9.45;;;;;;;1.24;78.25;95984.81;5110116;27;20496;-44
2022/03/28 01:50:39;;;;;;;21.08;10.13;;;;;;;1.25;79.15;95981.25;5111025;27;20051;-42
2022/03/28 01:53:06;;;;;;;18.10;10.27;;;;;;;1.24;78.88;95974.53;5112127;27;20557;-43
2022/03/28 01:55:33;;;;;;;16.95;8.05;;;;;;;1.15;79.50;95965.09;5115068;27;20042;-43
2022/03/28 01:58:00;;;;;;;26.40;11.32;;;;;;;1.25;79.62;95983.84;5113306;27;20051;-42
2022/03/28 02:00:28;;;;;;;22.92;10.35;;;;;;;1.29;80.00;95982.59;5091102;27;20036;-43
2022/03/28 02:02:56;;;;;;;25.52;10.77;;;;;;;1.39;79.95;95982.53;5112402;27;20047;-43
2022/03/28 02:05:23;;;;;;;23.17;10.40;;;;;;;1.40;80.31;95967.94;5110789;27;20493;-48
2022/03/28 02:07:50;;;;;;;20.88;10.02;;;;;;;1.31;80.52;95960.16;5109535;27;20039;-43
2022/03/28 02:10:19;;;;;;;20.98;9.07;;;;;;;1.29;80.53;95967.19;5111475;27;20507;-42
2022/03/28 02:12:46;;;;;;;13.98;8.07;;;;;;;1.27;81.29;95974.22;5112092;27;20482;-47
2022/03/28 02:15:13;;;;;;;29.08;10.55;;;;;;;1.28;82.28;95970.72;5111074;27;20097;-45
2022/03/28 02:17:40;;;;;;;29.25;10.52;;;;;;;1.27;82.19;95965.72;5112587;27;20416;-43
2022/03/28 02:20:09;;;;;;;28.88;8.95;;;;;;;1.17;83.29;95972.66;5110568;27;20537;-43
2022/03/28 02:22:37;;;;;;;19.70;10.18;;;;;;;1.19;84.36;95971.59;5108628;27;20039;-44
2022/03/28 02:25:06;;;;;;;17.75;8.77;;;;;;;1.27;84.70;95969.09;5112236;27;20155;-45
2022/03/28 02:27:33;;;;;;;18.50;9.40;;;;;;;1.31;84.99;95965.31;5110553;27;20492;-43
2022/03/28 02:30:00;;;;;;;19.73;7.20;;;;;;;1.33;84.67;95963.41;5111221;27;20435;-43
2022/03/28 02:32:26;;;;;;;12.70;6.60;;;;;;;1.30;85.01;95958.53;5111888;27;20043;-49
2022/03/28 02:34:53;;;;;;;16.77;7.00;;;;;;;1.30;85.99;95965.44;5111300;27;20400;-46
2022/03/28 02:37:20;;;;;;;15.57;8.38;;;;;;;1.29;86.45;95967.19;5110307;27;20061;-42
2022/03/28 02:39:47;;;;;;;15.90;8.77;;;;;;;1.37;86.82;95978.47;5110275;27;20127;-44
2022/03/28 02:42:14;;;;;;;15.55;7.88;;;;;;;1.37;86.51;95975.91;5110523;27;20077;-44
2022/03/28 02:44:41;;;;;;;18.63;6.95;;;;;;;1.41;86.56;95969.56;5106567;27;20035;-42
2022/03/28 02:47:08;;;;;;;15.90;7.35;;;;;;;1.42;86.53;95971.16;5110489;27;20035;-43
2022/03/28 02:49:35;;;;;;;17.88;8.57;;;;;;;1.41;86.71;95974.69;5109547;27;20067;-47
2022/03/28 02:52:02;;;;;;;16.08;7.93;;;;;;;1.43;87.14;95972.78;5110472;27;20122;-45
2022/03/28 02:54:29;;;;;;;18.05;7.88;;;;;;;1.51;85.93;95975.41;5111126;27;20043;-45
2022/03/28 02:56:55;;;;;;;14.88;7.32;;;;;;;1.47;85.44;95969.75;5088837;28;20101;-43
2022/03/28 02:59:22;;;;;;;22.98;9.27;;;;;;;1.48;84.70;95976.53;5108750;27;20522;-44
2022/03/28 03:01:50;;;;;;;27.20;13.10;;;;;;;1.51;84.06;95980.56;5106069;27;20031;-43
2022/03/28 03:04:17;;;;;;;21.17;9.70;;;;;;;1.52;83.81;95984.75;5110038;27;20096;-44
2022/03/28 03:06:44;;;;;;;21.40;8.57;;;;;;;1.47;83.04;95979.22;5104184;27;20122;-47
2022/03/28 03:09:11;;;;;;;13.70;7.75;;;;;;;1.36;83.85;95992.28;5101523;27;20497;-47
2022/03/28 03:11:37;;;;;;;27.08;9.82;;;;;;;1.38;83.67;95995.50;5110191;27;20108;-47
2022/03/28 03:14:05;;;;;;;19.98;7.80;;;;;;;1.38;83.40;95991.19;5108919;27;20073;-43
2022/03/28 03:16:32;;;;;;;18.00;8.35;;;;;;;1.33;83.70;95994.19;5108996;27;20471;-45
2022/03/28 03:18:58;;;;;;;17.55;7.43;;;;;;;1.31;83.43;95996.09;5107190;27;20114;-46
2022/03/28 03:21:25;;;;;;;16.13;7.28;;;;;;;1.16;83.42;95989.84;5107528;27;20059;-47
2022/03/28 03:23:52;;;;;;;17.00;7.63;;;;;;;1.14;83.19;95989.97;5106591;27;20043;-50
2022/03/28 03:26:19;;;;;;;16.00;8.48;;;;;;;1.05;83.73;95990.03;5108234;27;20051;-48
2022/03/28 03:28:46;;;;;;;15.30;7.65;;;;;;;0.97;83.51;95992.50;5109312;27;20058;-48
2022/03/28 03:31:13;;;;;;;14.93;7.28;;;;;;;0.95;82.92;95998.59;5106227;27;20044;-44
2022/03/28 03:33:40;;;;;;;15.80;8.05;;;;;;;0.86;82.84;95991.72;5109286;27;20601;-48
2022/03/28 03:36:07;;;;;;;11.43;6.90;;;;;;;0.73;83.21;95981.00;5108522;27;20124;-46
2022/03/28 03:38:34;;;;;;;16.05;6.85;;;;;;;0.74;83.36;95998.00;5107449;27;20122;-47
2022/03/28 03:41:01;;;;;;;12.23;6.90;;;;;;;0.67;84.71;95992.63;5110218;27;20055;-44
2022/03/28 03:43:28;;;;;;;14.13;6.45;;;;;;;0.57;86.13;95976.44;5109529;27;20100;-47
2022/03/28 03:45:55;;;;;;;14.23;7.65;;;;;;;0.65;86.73;95988.56;5108193;27;20044;-48
2022/03/28 03:48:22;;;;;;;19.63;8.48;;;;;;;0.67;87.90;95991.81;5106803;27;20082;-50
2022/03/28 03:50:49;;;;;;;18.48;8.73;;;;;;;0.57;89.33;95987.50;5106881;27;20040;-44
2022/03/28 03:53:16;;;;;;;15.68;6.75;;;;;;;0.61;90.74;95992.38;5105074;27;20051;-46
2022/03/28 03:55:43;;;;;;;17.40;8.65;;;;;;;0.60;91.41;95990.75;5096518;27;20063;-44
2022/03/28 03:58:11;;;;;;;25.25;7.35;;;;;;;0.62;91.89;95989.66;5098861;28;20047;-44
2022/03/28 04:00:37;;;;;;;24.05;10.60;;;;;;;0.68;92.94;95988.28;5074647;27;20036;-44
2022/03/28 04:03:04;;;;;;;21.80;8.10;;;;;;;0.79;92.44;95980.41;5103794;28;20043;-43
2022/03/28 04:05:32;;;;;;;23.20;9.35;;;;;;;0.80;92.38;95984.59;5110395;27;20048;-46
2022/03/28 04:07:59;;;;;;;17.63;8.63;;;;;;;0.80;91.64;95997.44;5110059;28;20500;-44
2022/03/28 04:10:26;;;;;;;17.73;8.02;;;;;;;0.75;91.20;96008.09;5106695;28;20039;-45
2022/03/28 04:12:53;;;;;;;19.52;8.88;;;;;;;0.68;92.39;96004.47;5108617;28;20046;-44
2022/03/28 04:15:20;;;;;;;18.65;8.30;;;;;;;0.72;93.29;95999.88;5104001;28;20105;-45
2022/03/28 04:17:47;;;;;;;19.85;9.45;;;;;;;0.77;93.64;96007.97;5105607;28;20051;-48
2022/03/28 04:20:15;;;;;;;31.90;10.00;;;;;;;0.78;93.59;96009.59;5107132;28;20032;-45
2022/03/28 04:22:45;;;;;;;27.38;9.50;;;;;;;0.81;93.25;96009.31;5088303;28;20043;-45
2022/03/28 04:25:13;;;;;;;26.08;11.23;;;;;;;0.87;92.77;96008.75;5106913;28;20039;-45
2022/03/28 04:27:41;;;;;;;28.02;10.82;;;;;;;0.86;92.81;96017.38;5109312;28;20055;-45
2022/03/28 04:30:10;;;;;;;23.58;11.30;;;;;;;0.87;93.82;96024.13;5109427;27;20579;-44
2022/03/28 04:32:37;;;;;;;24.25;10.73;;;;;;;0.99;93.91;96026.50;5112295;27;20070;-44
2022/03/28 04:35:05;;;;;;;29.80;11.07;;;;;;;1.04;93.63;96024.31;5110980;27;20055;-45
2022/03/28 04:37:34;;;;;;;24.65;9.68;;;;;;;1.07;93.12;96024.06;5110554;27;20043;-43
2022/03/28 04:40:02;;;;;;;18.23;9.35;;;;;;;1.11;93.54;96026.16;5111582;27;20753;-43
2022/03/28 04:42:29;;;;;;;20.95;9.65;;;;;;;1.16;93.69;96025.75;5111254;27;20040;-43
2022/03/28 04:44:55;;;;;;;21.40;11.00;;;;;;;1.21;94.04;96036.41;5112170;27;20516;-45
2022/03/28 04:47:22;;;;;;;14.65;7.57;;;;;;;1.23;93.94;96026.81;5110136;27;20081;-44
2022/03/28 04:49:49;;;;;;;23.33;8.88;;;;;;;1.28;93.91;96032.31;5107983;27;20097;-48
2022/03/28 04:52:16;;;;;;;18.30;8.93;;;;;;;1.30;94.23;96025.28;5112154;27;20420;-47
2022/03/28 04:54:43;;;;;;;20.50;9.02;;;;;;;1.37;93.95;96011.84;5110541;27;20520;-44
2022/03/28 04:57:09;;;;;;;20.17;8.60;;;;;;;1.46;93.70;96013.56;5109108;27;20059;-48
2022/03/28 04:59:36;;;;;;;18.75;10.60;;;;;;;1.53;94.20;96024.84;5109364;27;20488;-48
2022/03/28 05:02:03;;;;;;;29.65;11.23;;;;;;;1.69;94.14;96025.03;5109216;27;20560;-47
2022/03/28 05:04:30;;;;;;;20.20;10.73;;;;;;;1.88;93.59;96029.22;5109758;27;20042;-48
2022/03/28 05:06:56;;;;;;;22.35;9.48;;;;;;;2.01;93.53;96023.69;5112024;27;20051;-44
2022/03/28 05:09:23;;;;;;;24.20;9.25;;;;;;;2.17;93.59;96017.09;5111926;27;20069;-44
2022/03/28 05:11:50;;;;;;;24.23;8.00;;;;;;;2.29;93.31;96015.91;5111060;27;20100;-45
2022/03/28 05:14:18;;;;;;;19.52;9.68;;;;;;;2.40;93.48;96017.41;5110538;27;20032;-45
2022/03/28 05:16:45;;;;;;;67.07;18.30;;;;;;;2.61;93.02;96017.03;5111607;27;20054;-45
2022/03/28 05:19:12;;;;;;;56.10;21.65;;;;;;;2.84;92.19;96019.91;5111353;27;20428;-44
2022/03/28 05:21:38;;;;;;;22.30;10.88;;;;;;;3.04;92.47;96015.34;5111622;27;20096;-45
2022/03/28 05:24:05;;;;;;;28.80;11.32;;;;;;;3.18;92.77;96007.03;5111860;27;20081;-46
2022/03/28 05:26:32;;;;;;;18.63;8.68;;;;;;;3.37;92.80;96010.31;5109986;27;20058;-45
2022/03/28 05:29:00;;;;;;;20.20;8.60;;;;;;;3.53;92.81;96005.22;5113086;27;20047;-43
2022/03/28 05:31:27;;;;;;;18.95;8.75;;;;;;;3.82;92.32;96019.44;5110923;27;20043;-45
2022/03/28 05:33:54;;;;;;;23.50;10.13;;;;;;;4.05;90.87;96003.31;5110270;27;20077;-47
2022/03/28 05:36:21;;;;;;;16.60;8.18;;;;;;;4.33;89.43;96007.19;5111509;27;20434;-49
2022/03/28 05:38:48;;;;;;;31.02;10.13;;;;;;;4.53;88.45;96006.84;5113249;27;20060;-51
2022/03/28 05:41:16;;;;;;;17.38;7.93;;;;;;;4.61;86.44;95996.50;5110344;27;20047;-45
2022/03/28 05:43:42;;;;;;;19.63;8.23;;;;;;;4.96;85.59;96018.50;5111462;27;20063;-50
2022/03/28 05:46:10;;;;;;;17.98;7.38;;;;;;;5.19;84.54;96014.41;5112720;27;20093;-49
2022/03/28 05:48:37;;;;;;;14.20;7.22;;;;;;;5.40;83.30;96009.44;5109497;27;20078;-46
2022/03/28 05:51:04;;;;;;;17.15;7.20;;;;;;;5.63;81.76;96013.84;5108778;27;20730;-47
2022/03/28 05:53:31;;;;;;;13.30;6.60;;;;;;;5.81;80.86;96011.78;5112982;27;20048;-45
2022/03/28 05:55:57;;;;;;;10.98;6.03;;;;;;;6.10;79.15;96015.50;5111238;27;20065;-45
2022/03/28 05:58:24;;;;;;;14.63;7.35;;;;;;;6.30;78.04;96008.06;5111720;27;20035;-45
2022/03/28 06:00:51;;;;;;;13.63;7.13;;;;;;;6.49;76.41;96009.38;5110227;27;20472;-45
2022/03/28 06:03:18;;;;;;;18.65;8.43;;;;;;;6.68;73.86;96016.63;5109375;27;20047;-47
2022/03/28 06:06:02;;;;;;;9.75;3.80;;;;;;;6.77;74.38;96006.16;5111402;27;20047;-46
2022/03/28 06:08:29;;;;;;;14.73;6.85;;;;;;;6.40;75.43;96015.59;5110927;27;20039;-44
2022/03/28 06:10:56;;;;;;;24.05;9.88;;;;;;;6.35;75.34;96013.53;5090209;28;20553;-44
2022/03/28 06:13:23;;;;;;;24.20;8.35;;;;;;;6.31;75.21;96013.06;5110965;27;20035;-48
2022/03/28 06:15:50;;;;;;;19.67;8.40;;;;;;;6.31;74.95;96018.25;5111029;27;20491;-49
2022/03/28 06:18:16;;;;;;;16.92;7.43;;;;;;;6.28;74.42;96018.59;5111664;27;20504;-48
2022/03/28 06:20:43;;;;;;;17.08;7.28;;;;;;;6.32;74.53;96014.69;5110231;27;20188;-48
2022/03/28 06:23:12;;;;;;;15.35;6.28;;;;;;;6.20;74.18;95990.22;5111303;27;20124;-44
2022/03/28 06:25:40;;;;;;;17.40;7.93;;;;;;;6.31;74.31;96015.66;5111480;27;20043;-46
2022/03/28 06:28:07;;;;;;;21.30;9.73;;;;;;;6.40;74.54;96025.94;5111262;27;20047;-44
2022/03/28 06:30:35;;;;;;;22.67;9.32;;;;;;;6.61;74.19;96018.31;5112636;27;20047;-47
2022/03/28 06:33:01;;;;;;;21.52;7.30;;;;;;;6.69;73.48;96020.00;5110470;27;20039;-44
2022/03/28 06:35:28;;;;;;;17.60;8.75;;;;;;;6.81;73.33;96022.97;5111823;27;20478;-45
2022/03/28 06:37:55;;;;;;;16.85;9.07;;;;;;;7.03;72.68;96022.06;5111955;27;20051;-46
2022/03/28 06:40:24;;;;;;;15.48;8.63;;;;;;;7.18;71.54;96029.03;5109304;27;20044;-44
2022/03/28 06:42:51;;;;;;;17.63;10.15;;;;;;;7.29;70.82;96028.56;5110917;27;20131;-43
2022/03/28 06:45:18;;;;;;;15.90;8.63;;;;;;;7.46;70.78;96026.59;5109133;27;20422;-46
2022/03/28 06:47:51;;;;;;;22.95;9.93;;;;;;;7.64;69.29;96039.16;5110246;27;20749;-45
2022/03/28 06:50:21;;;;;;;19.58;11.57;;;;;;;7.70;69.53;96038.44;5107782;27;20602;-44
2022/03/28 06:52:48;;;;;;;15.77;9.60;;;;;;;7.96;68.43;96042.28;5108388;27;20043;-47
2022/03/28 06:55:15;;;;;;;17.58;8.52;;;;;;;8.11;67.96;96030.06;5110699;27;20052;-47
2022/03/28 06:57:41;;;;;;;20.67;10.65;;;;;;;8.30;68.11;96033.00;5110468;27;20066;-48
2022/03/28 07:00:12;;;;;;;20.52;9.35;;;;;;;8.54;66.53;96029.25;5109012;27;20054;-43
2022/03/28 07:02:40;;;;;;;18.55;10.00;;;;;;;8.77;65.12;96027.22;5106136;27;20416;-45
2022/03/28 07:05:08;;;;;;;18.20;9.70;;;;;;;9.01;63.66;96034.78;5087563;27;20043;-45
2022/03/28 07:07:46;;;;;;;17.92;8.05;;;;;;;9.24;63.04;96030.09;5107312;27;20043;-45
2022/03/28 07:10:16;;;;;;;11.70;7.20;;;;;;;9.33;61.29;96034.13;5108982;27;20044;-45
2022/03/28 07:12:43;;;;;;;21.33;8.73;;;;;;;9.51;61.49;96038.81;5108368;27;20093;-48
2022/03/28 07:15:11;;;;;;;17.92;9.02;;;;;;;9.67;61.10;96045.47;5107949;27;20040;-52
2022/03/28 07:18:07;;;;;;;18.30;7.55;;;;;;;9.97;60.72;96039.94;5109434;27;20040;-46
2022/03/28 07:20:35;;;;;;;17.20;7.63;;;;;;;10.05;59.85;96037.16;5106741;27;20050;-44
2022/03/28 07:23:03;;;;;;;20.52;8.25;;;;;;;10.13;59.35;96036.97;5109280;27;20120;-44
2022/03/28 07:25:30;;;;;;;15.45;8.02;;;;;;;10.20;59.01;96036.19;5108390;27;20044;-44
2022/03/28 07:27:57;;;;;;;15.23;8.18;;;;;;;10.39;58.99;96038.03;5108260;27;20445;-44
2022/03/28 07:30:26;;;;;;;16.02;7.93;;;;;;;10.63;57.86;96028.03;5111411;27;20047;-45
2022/03/28 07:32:55;;;;;;;15.95;8.85;;;;;;;10.73;56.16;96033.59;5103599;27;20051;-46
2022/03/28 07:35:22;;;;;;;14.90;10.00;;;;;;;10.83;56.04;96039.22;5109381;27;20044;-44
2022/03/28 07:37:50;;;;;;;15.98;8.57;;;;;;;10.98;55.78;96030.38;5108028;27;20092;-45
2022/03/28 07:40:17;;;;;;;14.73;8.25;;;;;;;11.18;54.58;96031.16;5108698;27;20630;-44
2022/03/28 07:42:44;;;;;;;9.68;5.70;;;;;;;11.29;53.77;96034.94;5108141;27;20047;-43
2022/03/28 07:45:14;;;;;;;12.60;7.00;;;;;;;11.32;53.79;96033.69;5108137;27;20055;-43
2022/03/28 07:47:42;;;;;;;13.23;6.60;;;;;;;11.52;53.49;96037.03;5107726;28;20523;-44
2022/03/28 07:50:10;;;;;;;13.10;7.25;;;;;;;11.71;52.25;96029.34;5103846;27;20051;-47
2022/03/28 07:52:38;;;;;;;12.23;7.10;;;;;;;11.86;52.54;96030.63;5106595;27;20043;-43
2022/03/28 07:55:06;;;;;;;25.10;6.40;;;;;;;11.93;52.10;96033.25;5107024;27;20061;-46
2022/03/28 07:57:37;;;;;;;15.77;7.10;;;;;;;12.03;52.08;96028.38;5107285;28;20051;-44
2022/03/28 08:00:06;;;;;;;13.10;5.88;;;;;;;12.20;52.44;96020.03;5108712;27;20531;-44
2022/03/28 08:02:52;;;;;;;10.48;5.53;;;;;;;12.53;51.53;96022.41;5104954;27;20108;-45
2022/03/28 08:05:19;;;;;;;15.57;6.05;;;;;;;12.67;49.60;96023.09;5108688;27;20059;-43
2022/03/28 08:07:50;;;;;;;12.48;6.38;;;;;;;12.76;49.32;96005.31;5106500;28;20096;-41
2022/03/28 08:10:17;;;;;;;15.57;6.43;;;;;;;13.07;48.79;96012.28;5108270;28;20055;-43
2022/03/28 08:12:45;;;;;;;11.40;6.43;;;;;;;13.15;48.16;96009.34;5106765;28;20579;-48
2022/03/28 08:15:13;;;;;;;12.90;5.28;;;;;;;13.13;48.08;96011.38;5107125;28;20401;-44
2022/03/28 08:17:41;;;;;;;14.88;5.78;;;;;;;13.08;47.50;95966.78;5109303;28;20044;-42
2022/03/28 08:20:10;;;;;;;8.30;5.30;;;;;;;13.48;47.02;96008.19;5105865;28;20043;-44
2022/03/28 08:22:39;;;;;;;12.00;5.28;;;;;;;13.55;46.63;96003.69;5110044;28;20039;-43
2022/03/28 08:25:07;;;;;;;15.60;6.07;;;;;;;13.62;46.57;96008.06;5107905;28;20039;-43
2022/03/28 08:27:35;;;;;;;11.95;5.63;;;;;;;13.57;46.23;95996.41;5108512;28;20569;-45
2022/03/28 08:30:03;;;;;;;10.73;6.22;;;;;;;13.64;46.30;95987.69;5108252;28;20481;-44
2022/03/28 08:32:30;;;;;;;8.45;4.97;;;;;;;13.85;45.93;95991.63;5106968;28;20043;-43
2022/03/28 08:34:57;;;;;;;11.73;7.13;;;;;;;14.00;45.26;95988.59;5108242;28;20047;-44
2022/03/28 08:37:24;;;;;;;10.10;5.30;;;;;;;14.21;44.95;95985.47;5108061;28;20124;-46
2022/03/28 08:39:54;;;;;;;9.52;5.13;;;;;;;14.22;45.08;95981.81;5106269;28;20043;-44
2022/03/28 08:42:23;;;;;;;9.90;4.40;;;;;;;14.33;44.43;95983.66;5109022;28;20599;-42
2022/03/28 08:44:51;;;;;;;9.18;5.25;;;;;;;14.28;43.86;95972.28;5109778;28;20754;-47
2022/03/28 08:47:19;;;;;;;10.77;5.40;;;;;;;14.42;43.71;95970.22;5087414;28;20097;-43
2022/03/28 08:49:47;;;;;;;9.45;5.60;;;;;;;14.65;43.32;95965.00;5106331;28;20047;-44
2022/03/28 08:52:16;;;;;;;15.73;5.90;;;;;;;14.62;43.44;95955.00;5110236;28;20044;-47
2022/03/28 08:54:44;;;;;;;7.70;4.97;;;;;;;14.50;43.21;95954.16;5107032;28;20412;-45
2022/03/28 08:57:15;;;;;;;9.52;5.65;;;;;;;14.61;43.39;95950.75;5109198;28;20044;-45
2022/03/28 08:59:42;;;;;;;12.00;6.97;;;;;;;14.90;42.38;95940.38;5108840;28;20044;-46
2022/03/28 09:02:50;;;;;;;10.25;6.07;;;;;;;14.61;42.59;95948.16;5108716;28;20370;-50
2022/03/28 09:05:28;;;;;;;10.60;5.57;;;;;;;14.53;43.37;95940.56;5108442;28;20063;-42
2022/03/28 09:07:58;;;;;;;9.38;5.13;;;;;;;14.93;42.50;95934.66;5109055;28;20062;-47
2022/03/28 09:10:32;;;;;;;7.90;5.00;;;;;;;15.25;41.72;95926.34;5107249;28;20035;-44
2022/03/28 09:13:09;;;;;;;8.75;5.72;;;;;;;15.60;41.29;95928.84;5108448;28;20500;-46
2022/03/28 09:15:56;;;;;;;9.38;5.47;;;;;;;15.88;40.41;95929.09;5087722;27;20052;-47
2022/03/28 09:18:31;;;;;;;9.38;5.03;;;;;;;16.17;40.20;95917.50;5113309;27;20438;-45
2022/03/28 09:21:02;;;;;;;9.00;4.93;;;;;;;16.50;40.58;95910.59;5110290;27;20039;-44
2022/03/28 09:23:35;;;;;;;10.77;5.15;;;;;;;16.48;38.40;95917.16;5110824;27;20043;-44
2022/03/28 09:26:16;;;;;;;9.25;5.13;;;;;;;16.53;38.33;95904.88;5110074;27;20488;-48
2022/03/28 09:29:00;;;;;;;10.45;5.65;;;;;;;16.85;37.92;95906.88;5111276;27;20047;-47
2022/03/28 09:31:39;;;;;;;8.50;4.63;;;;;;;17.15;37.66;95903.03;5111487;27;20118;-45
2022/03/28 09:34:19;;;;;;;14.95;5.70;;;;;;;17.48;36.67;95893.38;5112130;27;20043;-47
2022/03/28 09:36:48;;;;;;;8.80;5.85;;;;;;;17.81;36.44;95897.66;5110526;27;20075;-47
2022/03/28 09:39:20;;;;;;;9.30;5.25;;;;;;;18.07;35.66;95893.41;5110384;27;20131;-49
2022/03/28 09:41:59;;;;;;;9.82;5.05;;;;;;;18.26;35.06;95895.66;5112046;27;20496;-45
2022/03/28 09:44:34;;;;;;;11.38;5.07;;;;;;;18.40;34.20;95881.00;5111927;27;20096;-46
2022/03/28 09:47:12;;;;;;;8.68;5.35;;;;;;;18.46;34.14;95882.59;5110918;27;20035;-49
2022/03/28 09:49:44;;;;;;;11.40;5.43;;;;;;;18.60;33.81;95876.84;5109358;27;20039;-44
2022/03/28 09:52:25;;;;;;;9.90;5.40;;;;;;;18.56;34.21;95875.78;5092001;27;20058;-46
2022/03/28 09:54:55;;;;;;;12.10;4.97;;;;;;;18.45;34.19;95865.16;5109982;27;20052;-46
2022/03/28 09:57:34;;;;;;;10.15;5.30;;;;;;;18.31;34.32;95858.75;5111518;27;20044;-45
2022/03/28 10:00:09;;;;;;;9.40;6.03;;;;;;;18.06;34.40;95862.84;5111276;27;20493;-48
2022/03/28 10:02:36;;;;;;;12.80;5.78;;;;;;;18.25;35.22;95854.50;5111137;27;20782;-45
2022/03/28 10:05:05;;;;;;;10.32;6.20;;;;;;;18.51;33.84;95850.97;5110502;27;20039;-45
2022/03/28 10:07:32;;;;;;;8.48;5.00;;;;;;;18.71;34.42;95846.84;5110847;27;20104;-50
2022/03/28 10:10:00;;;;;;;8.63;4.55;;;;;;;18.89;33.51;95838.50;5111862;27;20055;-48
2022/03/28 10:12:27;;;;;;;10.40;5.57;;;;;;;18.90;33.32;95834.78;5111118;27;20089;-45
2022/03/28 10:15:00;;;;;;;9.95;5.78;;;;;;;19.32;33.76;95834.91;5110599;27;20040;-44
2022/03/28 10:17:29;;;;;;;9.27;5.32;;;;;;;19.83;32.22;95835.00;5108983;27;20054;-45
2022/03/28 10:19:56;;;;;;;10.27;5.35;;;;;;;20.34;31.27;95824.34;5108148;27;20047;-46
2022/03/28 10:22:33;;;;;;;11.50;5.38;;;;;;;20.65;30.28;95824.28;5109624;27;20043;-43
2022/03/28 10:25:08;;;;;;;10.52;5.38;;;;;;;20.62;29.64;95814.25;5108502;27;20489;-43
2022/03/28 10:27:36;;;;;;;6.72;5.15;;;;;;;20.17;29.98;95806.13;5107663;27;20505;-46
2022/03/28 10:30:22;;;;;;;7.05;4.50;;;;;;;19.90;30.28;95793.22;5106915;27;20047;-45
2022/03/28 10:33:28;;;;;;;9.60;5.00;;;;;;;20.13;29.73;95802.44;5107239;27;20497;-47
2022/03/28 10:35:55;;;;;;;9.30;4.93;;;;;;;20.16;29.87;95790.53;5022466;28;20077;-44
2022/03/28 10:38:22;;;;;;;8.32;5.28;;;;;;;20.25;29.81;95791.56;5019835;28;20127;-45
2022/03/28 10:41:00;;;;;;;8.27;4.70;;;;;;;20.35;29.55;95788.91;5064750;27;20040;-47
2022/03/28 10:43:30;;;;;;;13.32;4.95;;;;;;;20.12;29.24;95778.91;5088885;27;20047;-46
2022/03/28 10:46:02;;;;;;;11.82;5.47;;;;;;;20.31;29.95;95772.00;5108440;27;20088;-45
2022/03/28 10:48:42;;;;;;;7.28;4.75;;;;;;;20.54;29.07;95775.06;5108689;27;20118;-46
2022/03/28 10:51:18;;;;;;;7.45;4.82;;;;;;;20.66;29.12;95772.16;5106422;27;20039;-45
2022/03/28 10:53:54;;;;;;;6.20;4.78;;;;;;;20.82;28.29;95765.72;5108761;27;20127;-43
2022/03/28 10:56:29;;;;;;;11.57;4.80;;;;;;;20.87;27.49;95756.94;5105427;27;20031;-44
2022/03/28 10:58:59;;;;;;;8.30;4.55;;;;;;;20.86;27.66;95760.66;5108553;27;20092;-48
2022/03/28 11:01:43;;;;;;;10.45;5.30;;;;;;;20.63;28.20;95747.00;5106957;27;20051;-44
2022/03/28 11:04:16;;;;;;;9.82;6.25;;;;;;;20.57;27.47;95756.78;5107869;27;20039;-45
2022/03/28 11:07:07;;;;;;;8.85;6.03;;;;;;;20.69;27.62;95751.22;5107241;27;20055;-47
2022/03/28 11:09:49;;;;;;;10.10;6.05;;;;;;;21.02;28.13;95740.19;5108040;27;20051;-46
2022/03/28 11:12:31;;;;;;;8.77;6.10;;;;;;;21.38;27.83;95730.13;5107482;27;20525;-45
2022/03/28 11:15:02;;;;;;;13.95;6.28;;;;;;;21.68;26.56;95729.09;5111799;27;20043;-44
2022/03/28 11:17:34;;;;;;;9.68;5.43;;;;;;;21.23;26.87;95732.88;5109304;27;20036;-49
2022/03/28 11:20:14;;;;;;;10.95;6.43;;;;;;;20.67;26.91;95718.94;5108908;27;20126;-43
2022/03/28 11:23:03;;;;;;;15.40;6.82;;;;;;;20.57;27.35;95726.91;5108918;27;20043;-46
2022/03/28 11:25:46;;;;;;;15.75;7.07;;;;;;;20.26;28.21;95721.75;5090440;27;20062;-44
2022/03/28 11:28:33;;;;;;;9.95;6.25;;;;;;;20.23;27.61;95714.34;5106688;27;20067;-49
2022/03/28 11:31:11;;;;;;;18.95;6.60;;;;;;;20.33;28.30;95710.84;5088210;27;20039;-44
2022/03/28 11:33:39;;;;;;;15.85;7.07;;;;;;;20.25;28.38;95715.63;5109762;27;20108;-45
2022/03/28 11:36:13;;;;;;;17.40;7.57;;;;;;;20.25;28.28;95709.56;5106938;27;20047;-45
2022/03/28 11:38:49;;;;;;;12.10;6.82;;;;;;;20.00;28.62;95708.59;5108377;27;20043;-47
2022/03/28 11:41:16;;;;;;;;;;;;;;;19.99;28.39;95703.59;5109319;27;20039;-49
2022/03/28 11:43:48;;;;;;;15.60;7.88;;;;;;;19.96;28.56;95680.31;5109144;27;20707;-47